sensor_id;sensor_type;location;lat;lon;timestamp;P1;durP1;ratioP1;P2;durP2;ratioP2
4307;SDS011;2167;53.448;9.984;2023-02-28T00:00:17;6.43;;;3.90;;
4307;SDS011;2167;53.448;9.984;2023-02-28T00:02:44;3.37;;;3.03;;
4307;SDS011;2167;53.448;9.984;2023-02-28T00:05:11;7.93;;;3.50;;
4307;SDS011;2167;53.448;9.984;2023-02-28T00:07:39;5.77;;;4.47;;
4307;SDS011;2167;53.448;9.984;2023-02-28T00:10:05;10.70;;;3.20;;
4307;SDS011;2167;53.448;9.984;2023-02-28T00:12:33;6.70;;;3.87;;
4307;SDS011;2167;53.448;9.984;2023-02-28T00:14:59;4.37;;;3.30;;
4307;SDS011;2167;53.448;9.984;2023-02-28T00:17:25;6.43;;;3.47;;
4307;SDS011;2167;53.448;9.984;2023-02-28T00:19:51;6.73;;;4.23;;
4307;SDS011;2167;53.448;9.984;2023-02-28T00:22:17;7.40;;;4.00;;
4307;SDS011;2167;53.448;9.984;2023-02-28T00:24:44;5.50;;;4.50;;
4307;SDS011;2167;53.448;9.984;2023-02-28T00:27:10;8.03;;;3.80;;
4307;SDS011;2167;53.448;9.984;2023-02-28T00:29:36;5.23;;;2.90;;
4307;SDS011;2167;53.448;9.984;2023-02-28T00:32:02;9.00;;;4.73;;
4307;SDS011;2167;53.448;9.984;2023-02-28T00:34:29;6.13;;;4.22;;
4307;SDS011;2167;53.448;9.984;2023-02-28T00:36:54;6.47;;;4.57;;
4307;SDS011;2167;53.448;9.984;2023-02-28T00:39:20;4.93;;;3.60;;
4307;SDS011;2167;53.448;9.984;2023-02-28T00:41:46;7.73;;;3.50;;
4307;SDS011;2167;53.448;9.984;2023-02-28T00:44:12;8.93;;;3.63;;
4307;SDS011;2167;53.448;9.984;2023-02-28T00:46:37;6.80;;;4.40;;
4307;SDS011;2167;53.448;9.984;2023-02-28T00:49:03;5.50;;;3.40;;
4307;SDS011;2167;53.448;9.984;2023-02-28T00:51:29;2.90;;;2.70;;
4307;SDS011;2167;53.448;9.984;2023-02-28T00:53:54;6.40;;;3.30;;
4307;SDS011;2167;53.448;9.984;2023-02-28T00:56:20;9.13;;;3.60;;
4307;SDS011;2167;53.448;9.984;2023-02-28T00:58:45;4.43;;;3.10;;
4307;SDS011;2167;53.448;9.984;2023-02-28T01:01:11;4.27;;;3.83;;
4307;SDS011;2167;53.448;9.984;2023-02-28T01:03:37;3.53;;;3.23;;
4307;SDS011;2167;53.448;9.984;2023-02-28T01:06:03;7.83;;;3.53;;
4307;SDS011;2167;53.448;9.984;2023-02-28T01:08:29;3.37;;;3.07;;
4307;SDS011;2167;53.448;9.984;2023-02-28T01:10:55;4.50;;;3.00;;
4307;SDS011;2167;53.448;9.984;2023-02-28T01:13:21;7.17;;;3.60;;
4307;SDS011;2167;53.448;9.984;2023-02-28T01:15:52;6.40;;;3.47;;
4307;SDS011;2167;53.448;9.984;2023-02-28T01:18:20;6.97;;;3.43;;
4307;SDS011;2167;53.448;9.984;2023-02-28T01:20:47;4.20;;;3.07;;
4307;SDS011;2167;53.448;9.984;2023-02-28T01:23:13;4.70;;;3.80;;
4307;SDS011;2167;53.448;9.984;2023-02-28T01:25:39;5.03;;;3.00;;
4307;SDS011;2167;53.448;9.984;2023-02-28T01:28:05;3.00;;;2.60;;
4307;SDS011;2167;53.448;9.984;2023-02-28T01:30:31;5.25;;;2.67;;
4307;SDS011;2167;53.448;9.984;2023-02-28T01:32:57;6.50;;;3.47;;
4307;SDS011;2167;53.448;9.984;2023-02-28T01:35:23;9.30;;;4.50;;
4307;SDS011;2167;53.448;9.984;2023-02-28T01:37:49;7.53;;;3.80;;
4307;SDS011;2167;53.448;9.984;2023-02-28T01:40:14;8.10;;;3.37;;
4307;SDS011;2167;53.448;9.984;2023-02-28T01:42:40;9.63;;;3.87;;
4307;SDS011;2167;53.448;9.984;2023-02-28T01:45:10;5.57;;;2.73;;
4307;SDS011;2167;53.448;9.984;2023-02-28T01:47:42;3.20;;;2.90;;
4307;SDS011;2167;53.448;9.984;2023-02-28T01:50:10;4.77;;;2.97;;
4307;SDS011;2167;53.448;9.984;2023-02-28T01:52:39;6.38;;;4.10;;
4307;SDS011;2167;53.448;9.984;2023-02-28T01:55:06;8.77;;;3.97;;
4307;SDS011;2167;53.448;9.984;2023-02-28T01:57:38;6.43;;;3.57;;
4307;SDS011;2167;53.448;9.984;2023-02-28T02:00:08;2.90;;;2.70;;
4307;SDS011;2167;53.448;9.984;2023-02-28T02:02:38;5.23;;;3.07;;
4307;SDS011;2167;53.448;9.984;2023-02-28T02:05:16;2.73;;;2.43;;
4307;SDS011;2167;53.448;9.984;2023-02-28T02:07:44;4.60;;;3.50;;
4307;SDS011;2167;53.448;9.984;2023-02-28T02:10:14;4.53;;;2.80;;
4307;SDS011;2167;53.448;9.984;2023-02-28T02:15:40;4.93;;;3.30;;
4307;SDS011;2167;53.448;9.984;2023-02-28T02:18:38;10.77;;;3.20;;
4307;SDS011;2167;53.448;9.984;2023-02-28T02:26:46;8.83;;;3.60;;
4307;SDS011;2167;53.448;9.984;2023-02-28T02:34:48;3.03;;;2.30;;
4307;SDS011;2167;53.448;9.984;2023-02-28T02:37:40;5.60;;;2.80;;
4307;SDS011;2167;53.448;9.984;2023-02-28T02:40:15;2.73;;;2.50;;
4307;SDS011;2167;53.448;9.984;2023-02-28T02:42:53;2.67;;;2.00;;
4307;SDS011;2167;53.448;9.984;2023-02-28T02:45:40;6.47;;;2.80;;
4307;SDS011;2167;53.448;9.984;2023-02-28T02:48:16;4.47;;;2.93;;
4307;SDS011;2167;53.448;9.984;2023-02-28T02:50:46;4.03;;;2.37;;
4307;SDS011;2167;53.448;9.984;2023-02-28T02:53:16;6.57;;;2.93;;
4307;SDS011;2167;53.448;9.984;2023-02-28T02:55:47;3.87;;;2.97;;
4307;SDS011;2167;53.448;9.984;2023-02-28T02:58:19;3.20;;;1.90;;
4307;SDS011;2167;53.448;9.984;2023-02-28T03:00:52;7.00;;;2.43;;
4307;SDS011;2167;53.448;9.984;2023-02-28T03:03:19;5.90;;;2.77;;
4307;SDS011;2167;53.448;9.984;2023-02-28T03:05:54;6.38;;;3.10;;
4307;SDS011;2167;53.448;9.984;2023-02-28T03:08:24;7.50;;;3.83;;
4307;SDS011;2167;53.448;9.984;2023-02-28T03:10:50;1.90;;;1.80;;
4307;SDS011;2167;53.448;9.984;2023-02-28T03:16:33;3.90;;;2.27;;
4307;SDS011;2167;53.448;9.984;2023-02-28T03:24:18;4.10;;;2.47;;
4307;SDS011;2167;53.448;9.984;2023-02-28T03:26:52;3.70;;;1.90;;
4307;SDS011;2167;53.448;9.984;2023-02-28T03:29:28;6.67;;;2.47;;
4307;SDS011;2167;53.448;9.984;2023-02-28T03:34:38;3.50;;;2.10;;
4307;SDS011;2167;53.448;9.984;2023-02-28T03:37:10;6.80;;;2.73;;
4307;SDS011;2167;53.448;9.984;2023-02-28T03:39:49;1.67;;;1.53;;
4307;SDS011;2167;53.448;9.984;2023-02-28T03:42:25;1.77;;;1.67;;
4307;SDS011;2167;53.448;9.984;2023-02-28T03:45:00;3.10;;;2.80;;
4307;SDS011;2167;53.448;9.984;2023-02-28T03:47:32;7.05;;;3.20;;
4307;SDS011;2167;53.448;9.984;2023-02-28T03:52:36;5.80;;;2.50;;
4307;SDS011;2167;53.448;9.984;2023-02-28T03:55:08;2.60;;;1.87;;
4307;SDS011;2167;53.448;9.984;2023-02-28T03:57:55;4.20;;;1.87;;
4307;SDS011;2167;53.448;9.984;2023-02-28T04:00:37;2.50;;;1.60;;
4307;SDS011;2167;53.448;9.984;2023-02-28T04:03:05;5.50;;;2.43;;
4307;SDS011;2167;53.448;9.984;2023-02-28T04:05:31;13.70;;;2.03;;
4307;SDS011;2167;53.448;9.984;2023-02-28T04:08:07;1.47;;;1.33;;
4307;SDS011;2167;53.448;9.984;2023-02-28T04:10:33;3.20;;;1.67;;
4307;SDS011;2167;53.448;9.984;2023-02-28T04:12:59;2.17;;;1.73;;
4307;SDS011;2167;53.448;9.984;2023-02-28T04:15:24;5.30;;;2.93;;
4307;SDS011;2167;53.448;9.984;2023-02-28T04:17:52;5.97;;;2.90;;
4307;SDS011;2167;53.448;9.984;2023-02-28T04:20:18;6.73;;;3.13;;
4307;SDS011;2167;53.448;9.984;2023-02-28T04:22:44;12.07;;;4.10;;
4307;SDS011;2167;53.448;9.984;2023-02-28T04:25:09;3.23;;;2.53;;
4307;SDS011;2167;53.448;9.984;2023-02-28T04:27:35;4.30;;;2.47;;
4307;SDS011;2167;53.448;9.984;2023-02-28T04:30:00;5.87;;;2.70;;
4307;SDS011;2167;53.448;9.984;2023-02-28T04:32:26;7.27;;;2.63;;
4307;SDS011;2167;53.448;9.984;2023-02-28T04:34:51;2.60;;;2.10;;
4307;SDS011;2167;53.448;9.984;2023-02-28T04:37:17;5.27;;;2.80;;
4307;SDS011;2167;53.448;9.984;2023-02-28T04:39:43;3.80;;;2.90;;
4307;SDS011;2167;53.448;9.984;2023-02-28T04:42:08;9.18;;;3.60;;
4307;SDS011;2167;53.448;9.984;2023-02-28T04:44:34;3.40;;;1.97;;
4307;SDS011;2167;53.448;9.984;2023-02-28T04:47:00;2.63;;;2.10;;
4307;SDS011;2167;53.448;9.984;2023-02-28T04:49:26;2.60;;;1.70;;
4307;SDS011;2167;53.448;9.984;2023-02-28T04:51:52;4.27;;;1.27;;
4307;SDS011;2167;53.448;9.984;2023-02-28T04:54:18;3.83;;;1.33;;
4307;SDS011;2167;53.448;9.984;2023-02-28T04:56:43;2.60;;;2.17;;
4307;SDS011;2167;53.448;9.984;2023-02-28T04:59:09;3.00;;;1.47;;
4307;SDS011;2167;53.448;9.984;2023-02-28T05:01:34;3.93;;;2.47;;
4307;SDS011;2167;53.448;9.984;2023-02-28T05:04:01;2.67;;;1.63;;
4307;SDS011;2167;53.448;9.984;2023-02-28T05:06:29;2.10;;;1.63;;
4307;SDS011;2167;53.448;9.984;2023-02-28T05:08:56;4.73;;;3.10;;
4307;SDS011;2167;53.448;9.984;2023-02-28T05:11:27;1.70;;;1.20;;
4307;SDS011;2167;53.448;9.984;2023-02-28T05:14:00;1.93;;;1.40;;
4307;SDS011;2167;53.448;9.984;2023-02-28T05:16:26;2.23;;;2.10;;
4307;SDS011;2167;53.448;9.984;2023-02-28T05:18:52;2.73;;;1.67;;
4307;SDS011;2167;53.448;9.984;2023-02-28T05:21:29;2.73;;;2.00;;
4307;SDS011;2167;53.448;9.984;2023-02-28T05:23:56;3.30;;;1.60;;
4307;SDS011;2167;53.448;9.984;2023-02-28T05:26:25;2.27;;;2.07;;
4307;SDS011;2167;53.448;9.984;2023-02-28T05:28:51;1.27;;;0.63;;
4307;SDS011;2167;53.448;9.984;2023-02-28T05:31:17;2.47;;;1.70;;
4307;SDS011;2167;53.448;9.984;2023-02-28T05:33:43;2.37;;;1.80;;
4307;SDS011;2167;53.448;9.984;2023-02-28T05:36:08;3.10;;;1.53;;
4307;SDS011;2167;53.448;9.984;2023-02-28T05:38:34;2.50;;;1.80;;
4307;SDS011;2167;53.448;9.984;2023-02-28T05:40:59;1.77;;;1.67;;
4307;SDS011;2167;53.448;9.984;2023-02-28T05:43:25;2.47;;;1.53;;
4307;SDS011;2167;53.448;9.984;2023-02-28T05:45:51;1.70;;;1.30;;
4307;SDS011;2167;53.448;9.984;2023-02-28T05:48:16;4.43;;;2.07;;
4307;SDS011;2167;53.448;9.984;2023-02-28T05:50:43;1.60;;;1.50;;
4307;SDS011;2167;53.448;9.984;2023-02-28T05:53:11;2.43;;;1.60;;
4307;SDS011;2167;53.448;9.984;2023-02-28T05:55:37;1.03;;;1.03;;
4307;SDS011;2167;53.448;9.984;2023-02-28T05:58:02;1.97;;;1.33;;
4307;SDS011;2167;53.448;9.984;2023-02-28T06:00:28;8.23;;;2.03;;
4307;SDS011;2167;53.448;9.984;2023-02-28T06:02:54;2.00;;;0.87;;
4307;SDS011;2167;53.448;9.984;2023-02-28T06:05:23;5.40;;;1.80;;
4307;SDS011;2167;53.448;9.984;2023-02-28T06:07:49;0.77;;;0.77;;
4307;SDS011;2167;53.448;9.984;2023-02-28T06:10:14;1.80;;;1.63;;
4307;SDS011;2167;53.448;9.984;2023-02-28T06:12:40;2.07;;;1.87;;
4307;SDS011;2167;53.448;9.984;2023-02-28T06:15:07;1.40;;;1.17;;
4307;SDS011;2167;53.448;9.984;2023-02-28T06:17:36;4.18;;;2.95;;
4307;SDS011;2167;53.448;9.984;2023-02-28T06:20:02;2.30;;;1.80;;
4307;SDS011;2167;53.448;9.984;2023-02-28T06:22:29;3.30;;;1.77;;
4307;SDS011;2167;53.448;9.984;2023-02-28T06:24:54;1.30;;;1.20;;
4307;SDS011;2167;53.448;9.984;2023-02-28T06:27:21;3.30;;;2.00;;
4307;SDS011;2167;53.448;9.984;2023-02-28T06:29:47;1.40;;;1.20;;
4307;SDS011;2167;53.448;9.984;2023-02-28T06:32:13;2.00;;;1.80;;
4307;SDS011;2167;53.448;9.984;2023-02-28T06:34:38;6.70;;;2.40;;
4307;SDS011;2167;53.448;9.984;2023-02-28T06:37:04;4.47;;;2.50;;
4307;SDS011;2167;53.448;9.984;2023-02-28T06:39:30;7.63;;;2.70;;
4307;SDS011;2167;53.448;9.984;2023-02-28T06:41:56;2.27;;;2.07;;
4307;SDS011;2167;53.448;9.984;2023-02-28T06:44:22;11.20;;;4.13;;
4307;SDS011;2167;53.448;9.984;2023-02-28T06:46:49;5.27;;;2.80;;
4307;SDS011;2167;53.448;9.984;2023-02-28T06:49:14;2.10;;;1.90;;
4307;SDS011;2167;53.448;9.984;2023-02-28T06:51:41;3.80;;;2.37;;
4307;SDS011;2167;53.448;9.984;2023-02-28T06:54:12;4.80;;;3.60;;
4307;SDS011;2167;53.448;9.984;2023-02-28T06:56:38;4.50;;;2.50;;
4307;SDS011;2167;53.448;9.984;2023-02-28T06:59:04;3.37;;;1.80;;
4307;SDS011;2167;53.448;9.984;2023-02-28T07:01:29;5.90;;;1.50;;
4307;SDS011;2167;53.448;9.984;2023-02-28T07:03:56;4.27;;;2.10;;
4307;SDS011;2167;53.448;9.984;2023-02-28T07:06:22;3.53;;;1.40;;
4307;SDS011;2167;53.448;9.984;2023-02-28T07:08:49;5.27;;;3.20;;
4307;SDS011;2167;53.448;9.984;2023-02-28T07:11:16;3.70;;;2.50;;
4307;SDS011;2167;53.448;9.984;2023-02-28T07:13:42;5.33;;;2.73;;
4307;SDS011;2167;53.448;9.984;2023-02-28T07:16:09;3.70;;;2.80;;
4307;SDS011;2167;53.448;9.984;2023-02-28T07:18:36;4.40;;;3.00;;
4307;SDS011;2167;53.448;9.984;2023-02-28T07:21:03;5.67;;;2.37;;
4307;SDS011;2167;53.448;9.984;2023-02-28T07:23:30;2.97;;;2.60;;
4307;SDS011;2167;53.448;9.984;2023-02-28T07:25:56;5.03;;;1.67;;
4307;SDS011;2167;53.448;9.984;2023-02-28T07:28:21;3.27;;;1.93;;
4307;SDS011;2167;53.448;9.984;2023-02-28T07:30:47;2.20;;;2.00;;
4307;SDS011;2167;53.448;9.984;2023-02-28T07:33:13;2.73;;;2.30;;
4307;SDS011;2167;53.448;9.984;2023-02-28T07:35:38;2.20;;;1.83;;
4307;SDS011;2167;53.448;9.984;2023-02-28T07:38:04;2.27;;;1.63;;
4307;SDS011;2167;53.448;9.984;2023-02-28T07:40:32;5.33;;;2.40;;
4307;SDS011;2167;53.448;9.984;2023-02-28T07:42:59;3.40;;;2.47;;
4307;SDS011;2167;53.448;9.984;2023-02-28T07:45:25;1.87;;;1.77;;
4307;SDS011;2167;53.448;9.984;2023-02-28T07:47:51;5.03;;;2.70;;
4307;SDS011;2167;53.448;9.984;2023-02-28T07:50:18;4.03;;;2.10;;
4307;SDS011;2167;53.448;9.984;2023-02-28T07:52:43;3.37;;;2.63;;
4307;SDS011;2167;53.448;9.984;2023-02-28T07:55:09;9.40;;;2.90;;
4307;SDS011;2167;53.448;9.984;2023-02-28T07:57:35;2.87;;;2.50;;
4307;SDS011;2167;53.448;9.984;2023-02-28T08:00:03;4.07;;;2.27;;
4307;SDS011;2167;53.448;9.984;2023-02-28T08:02:29;7.40;;;2.03;;
4307;SDS011;2167;53.448;9.984;2023-02-28T08:04:55;1.80;;;1.70;;
4307;SDS011;2167;53.448;9.984;2023-02-28T08:07:21;7.97;;;2.43;;
4307;SDS011;2167;53.448;9.984;2023-02-28T08:09:46;2.20;;;1.63;;
4307;SDS011;2167;53.448;9.984;2023-02-28T08:12:12;3.40;;;2.33;;
4307;SDS011;2167;53.448;9.984;2023-02-28T08:14:38;3.40;;;1.47;;
4307;SDS011;2167;53.448;9.984;2023-02-28T08:17:04;4.27;;;2.90;;
4307;SDS011;2167;53.448;9.984;2023-02-28T08:19:30;6.90;;;2.97;;
4307;SDS011;2167;53.448;9.984;2023-02-28T08:21:56;2.60;;;1.97;;
4307;SDS011;2167;53.448;9.984;2023-02-28T08:24:22;1.70;;;1.40;;
4307;SDS011;2167;53.448;9.984;2023-02-28T08:26:48;4.20;;;1.80;;
4307;SDS011;2167;53.448;9.984;2023-02-28T08:29:13;3.23;;;2.07;;
4307;SDS011;2167;53.448;9.984;2023-02-28T08:31:39;4.10;;;3.30;;
4307;SDS011;2167;53.448;9.984;2023-02-28T08:34:06;3.73;;;2.47;;
4307;SDS011;2167;53.448;9.984;2023-02-28T08:36:32;6.63;;;4.47;;
4307;SDS011;2167;53.448;9.984;2023-02-28T08:38:58;6.57;;;3.50;;
4307;SDS011;2167;53.448;9.984;2023-02-28T08:41:24;8.93;;;5.07;;
4307;SDS011;2167;53.448;9.984;2023-02-28T08:43:51;6.63;;;3.93;;
4307;SDS011;2167;53.448;9.984;2023-02-28T08:46:17;4.10;;;3.50;;
4307;SDS011;2167;53.448;9.984;2023-02-28T08:48:43;4.17;;;3.23;;
4307;SDS011;2167;53.448;9.984;2023-02-28T08:51:15;3.30;;;3.00;;
4307;SDS011;2167;53.448;9.984;2023-02-28T08:53:52;3.30;;;2.73;;
4307;SDS011;2167;53.448;9.984;2023-02-28T08:56:27;3.67;;;2.57;;
4307;SDS011;2167;53.448;9.984;2023-02-28T08:58:54;6.85;;;2.70;;
4307;SDS011;2167;53.448;9.984;2023-02-28T09:01:21;4.57;;;2.43;;
4307;SDS011;2167;53.448;9.984;2023-02-28T09:03:49;3.53;;;2.67;;
4307;SDS011;2167;53.448;9.984;2023-02-28T09:06:16;4.93;;;3.10;;
4307;SDS011;2167;53.448;9.984;2023-02-28T09:08:43;7.80;;;3.97;;
4307;SDS011;2167;53.448;9.984;2023-02-28T09:11:09;2.57;;;2.37;;
4307;SDS011;2167;53.448;9.984;2023-02-28T09:13:35;9.50;;;2.93;;
4307;SDS011;2167;53.448;9.984;2023-02-28T09:16:02;4.57;;;3.30;;
4307;SDS011;2167;53.448;9.984;2023-02-28T09:18:29;5.10;;;3.20;;
4307;SDS011;2167;53.448;9.984;2023-02-28T09:20:55;2.70;;;2.10;;
4307;SDS011;2167;53.448;9.984;2023-02-28T09:23:22;9.37;;;2.40;;
4307;SDS011;2167;53.448;9.984;2023-02-28T09:25:49;11.30;;;2.73;;
4307;SDS011;2167;53.448;9.984;2023-02-28T09:28:16;1.87;;;1.77;;
4307;SDS011;2167;53.448;9.984;2023-02-28T09:30:46;2.53;;;2.33;;
4307;SDS011;2167;53.448;9.984;2023-02-28T09:33:13;3.25;;;2.55;;
4307;SDS011;2167;53.448;9.984;2023-02-28T09:35:40;5.80;;;2.70;;
4307;SDS011;2167;53.448;9.984;2023-02-28T09:38:07;8.77;;;3.17;;
4307;SDS011;2167;53.448;9.984;2023-02-28T09:40:37;3.53;;;2.50;;
4307;SDS011;2167;53.448;9.984;2023-02-28T09:43:11;2.07;;;1.80;;
4307;SDS011;2167;53.448;9.984;2023-02-28T09:45:40;2.17;;;2.07;;
4307;SDS011;2167;53.448;9.984;2023-02-28T09:48:10;2.97;;;2.20;;
4307;SDS011;2167;53.448;9.984;2023-02-28T09:51:26;4.40;;;2.70;;
4307;SDS011;2167;53.448;9.984;2023-02-28T09:53:54;2.37;;;2.10;;
4307;SDS011;2167;53.448;9.984;2023-02-28T09:56:56;3.10;;;1.97;;
4307;SDS011;2167;53.448;9.984;2023-02-28T09:59:36;2.90;;;0.97;;
4307;SDS011;2167;53.448;9.984;2023-02-28T10:02:21;2.90;;;2.50;;
4307;SDS011;2167;53.448;9.984;2023-02-28T10:05:18;2.00;;;1.90;;
4307;SDS011;2167;53.448;9.984;2023-02-28T10:08:31;2.40;;;1.40;;
4307;SDS011;2167;53.448;9.984;2023-02-28T10:10:47;3.83;;;2.03;;
4307;SDS011;2167;53.448;9.984;2023-02-28T10:16:06;2.20;;;1.40;;
4307;SDS011;2167;53.448;9.984;2023-02-28T10:18:48;2.00;;;1.80;;
4307;SDS011;2167;53.448;9.984;2023-02-28T10:21:26;3.00;;;1.70;;
4307;SDS011;2167;53.448;9.984;2023-02-28T10:23:53;2.60;;;1.90;;
4307;SDS011;2167;53.448;9.984;2023-02-28T10:26:26;1.57;;;1.47;;
4307;SDS011;2167;53.448;9.984;2023-02-28T10:28:53;2.17;;;1.93;;
4307;SDS011;2167;53.448;9.984;2023-02-28T10:31:19;3.50;;;1.40;;
4307;SDS011;2167;53.448;9.984;2023-02-28T10:33:45;2.87;;;1.60;;
4307;SDS011;2167;53.448;9.984;2023-02-28T10:36:13;1.93;;;1.10;;
4307;SDS011;2167;53.448;9.984;2023-02-28T10:38:42;1.17;;;0.73;;
4307;SDS011;2167;53.448;9.984;2023-02-28T10:41:13;1.33;;;1.23;;
4307;SDS011;2167;53.448;9.984;2023-02-28T10:43:41;1.87;;;1.33;;
4307;SDS011;2167;53.448;9.984;2023-02-28T10:48:45;2.70;;;0.90;;
4307;SDS011;2167;53.448;9.984;2023-02-28T10:51:16;1.90;;;1.10;;
4307;SDS011;2167;53.448;9.984;2023-02-28T10:53:50;2.83;;;1.10;;
4307;SDS011;2167;53.448;9.984;2023-02-28T10:58:48;1.47;;;0.80;;
4307;SDS011;2167;53.448;9.984;2023-02-28T11:03:55;6.63;;;1.47;;
4307;SDS011;2167;53.448;9.984;2023-02-28T11:06:23;1.33;;;0.93;;
4307;SDS011;2167;53.448;9.984;2023-02-28T11:09:00;1.47;;;1.03;;
4307;SDS011;2167;53.448;9.984;2023-02-28T11:11:29;1.00;;;0.80;;
4307;SDS011;2167;53.448;9.984;2023-02-28T11:14:05;3.40;;;1.30;;
4307;SDS011;2167;53.448;9.984;2023-02-28T11:16:42;1.00;;;0.90;;
4307;SDS011;2167;53.448;9.984;2023-02-28T11:19:15;1.77;;;1.30;;
4307;SDS011;2167;53.448;9.984;2023-02-28T11:21:48;2.00;;;0.93;;
4307;SDS011;2167;53.448;9.984;2023-02-28T11:24:23;0.80;;;0.80;;
4307;SDS011;2167;53.448;9.984;2023-02-28T11:27:02;0.80;;;0.77;;
4307;SDS011;2167;53.448;9.984;2023-02-28T11:29:29;2.63;;;0.90;;
4307;SDS011;2167;53.448;9.984;2023-02-28T11:34:34;1.47;;;0.80;;
4307;SDS011;2167;53.448;9.984;2023-02-28T11:37:01;0.80;;;0.80;;
4307;SDS011;2167;53.448;9.984;2023-02-28T11:39:31;0.90;;;0.90;;
4307;SDS011;2167;53.448;9.984;2023-02-28T11:45:02;2.20;;;0.90;;
4307;SDS011;2167;53.448;9.984;2023-02-28T11:47:55;0.70;;;0.70;;
4307;SDS011;2167;53.448;9.984;2023-02-28T12:01:47;1.17;;;0.83;;
4307;SDS011;2167;53.448;9.984;2023-02-28T12:04:51;1.50;;;0.80;;
4307;SDS011;2167;53.448;9.984;2023-02-28T12:10:26;1.10;;;1.00;;
4307;SDS011;2167;53.448;9.984;2023-02-28T12:13:12;1.37;;;0.80;;
4307;SDS011;2167;53.448;9.984;2023-02-28T12:18:26;1.47;;;1.37;;
4307;SDS011;2167;53.448;9.984;2023-02-28T12:24:02;0.80;;;0.80;;
4307;SDS011;2167;53.448;9.984;2023-02-28T12:26:49;1.50;;;1.10;;
4307;SDS011;2167;53.448;9.984;2023-02-28T12:29:19;1.67;;;0.70;;
4307;SDS011;2167;53.448;9.984;2023-02-28T12:31:58;1.20;;;1.00;;
4307;SDS011;2167;53.448;9.984;2023-02-28T12:34:41;1.03;;;0.80;;
4307;SDS011;2167;53.448;9.984;2023-02-28T12:37:21;0.90;;;0.90;;
4307;SDS011;2167;53.448;9.984;2023-02-28T12:39:55;0.80;;;0.80;;
4307;SDS011;2167;53.448;9.984;2023-02-28T12:42:34;1.80;;;1.10;;
4307;SDS011;2167;53.448;9.984;2023-02-28T12:45:10;2.00;;;1.20;;
4307;SDS011;2167;53.448;9.984;2023-02-28T12:47:47;0.57;;;0.50;;
4307;SDS011;2167;53.448;9.984;2023-02-28T12:50:17;1.40;;;1.23;;
4307;SDS011;2167;53.448;9.984;2023-02-28T12:53:03;1.73;;;1.27;;
4307;SDS011;2167;53.448;9.984;2023-02-28T12:58:39;2.97;;;1.27;;
4307;SDS011;2167;53.448;9.984;2023-02-28T13:10:06;0.87;;;0.53;;
4307;SDS011;2167;53.448;9.984;2023-02-28T13:12:32;0.70;;;0.70;;
4307;SDS011;2167;53.448;9.984;2023-02-28T13:15:06;1.80;;;0.90;;
4307;SDS011;2167;53.448;9.984;2023-02-28T13:17:41;0.83;;;0.83;;
4307;SDS011;2167;53.448;9.984;2023-02-28T13:29:01;1.23;;;0.60;;
4307;SDS011;2167;53.448;9.984;2023-02-28T13:31:29;1.40;;;1.10;;
4307;SDS011;2167;53.448;9.984;2023-02-28T13:36:28;1.07;;;0.57;;
4307;SDS011;2167;53.448;9.984;2023-02-28T13:46:27;1.23;;;0.70;;
4307;SDS011;2167;53.448;9.984;2023-02-28T13:48:53;0.83;;;0.70;;
4307;SDS011;2167;53.448;9.984;2023-02-28T13:51:39;1.70;;;0.60;;
4307;SDS011;2167;53.448;9.984;2023-02-28T13:54:24;1.70;;;0.90;;
4307;SDS011;2167;53.448;9.984;2023-02-28T13:57:06;0.83;;;0.77;;
4307;SDS011;2167;53.448;9.984;2023-02-28T14:02:43;0.83;;;0.50;;
4307;SDS011;2167;53.448;9.984;2023-02-28T14:05:19;1.77;;;1.17;;
4307;SDS011;2167;53.448;9.984;2023-02-28T14:07:57;1.40;;;1.20;;
4307;SDS011;2167;53.448;9.984;2023-02-28T14:10:30;1.40;;;1.30;;
4307;SDS011;2167;53.448;9.984;2023-02-28T14:16:02;1.40;;;0.63;;
4307;SDS011;2167;53.448;9.984;2023-02-28T14:18:34;1.27;;;0.80;;
4307;SDS011;2167;53.448;9.984;2023-02-28T14:21:03;1.47;;;0.90;;
4307;SDS011;2167;53.448;9.984;2023-02-28T14:27:11;1.10;;;1.00;;
4307;SDS011;2167;53.448;9.984;2023-02-28T14:32:05;3.20;;;1.13;;
4307;SDS011;2167;53.448;9.984;2023-02-28T14:38:13;1.00;;;0.90;;
4307;SDS011;2167;53.448;9.984;2023-02-28T14:40:43;1.17;;;0.90;;
4307;SDS011;2167;53.448;9.984;2023-02-28T14:43:19;0.90;;;0.70;;
4307;SDS011;2167;53.448;9.984;2023-02-28T14:45:50;3.27;;;1.40;;
4307;SDS011;2167;53.448;9.984;2023-02-28T14:48:19;1.13;;;0.80;;
4307;SDS011;2167;53.448;9.984;2023-02-28T14:50:49;0.97;;;0.67;;
4307;SDS011;2167;53.448;9.984;2023-02-28T14:53:18;0.70;;;0.70;;
4307;SDS011;2167;53.448;9.984;2023-02-28T14:55:46;1.40;;;0.87;;
4307;SDS011;2167;53.448;9.984;2023-02-28T14:58:21;1.73;;;0.90;;
4307;SDS011;2167;53.448;9.984;2023-02-28T15:00:48;1.43;;;1.27;;
4307;SDS011;2167;53.448;9.984;2023-02-28T15:03:48;4.43;;;1.37;;
4307;SDS011;2167;53.448;9.984;2023-02-28T15:06:16;1.60;;;1.37;;
4307;SDS011;2167;53.448;9.984;2023-02-28T15:08:43;2.33;;;1.70;;
4307;SDS011;2167;53.448;9.984;2023-02-28T15:11:14;2.80;;;1.23;;
4307;SDS011;2167;53.448;9.984;2023-02-28T15:13:45;1.30;;;1.10;;
4307;SDS011;2167;53.448;9.984;2023-02-28T15:21:28;1.57;;;0.90;;
4307;SDS011;2167;53.448;9.984;2023-02-28T15:27:27;1.43;;;1.10;;
4307;SDS011;2167;53.448;9.984;2023-02-28T15:29:58;3.13;;;1.40;;
4307;SDS011;2167;53.448;9.984;2023-02-28T15:32:35;1.70;;;0.87;;
4307;SDS011;2167;53.448;9.984;2023-02-28T15:35:17;1.90;;;1.20;;
4307;SDS011;2167;53.448;9.984;2023-02-28T15:37:54;3.83;;;1.40;;
4307;SDS011;2167;53.448;9.984;2023-02-28T15:40:37;2.10;;;0.90;;
4307;SDS011;2167;53.448;9.984;2023-02-28T15:43:16;2.63;;;1.27;;
4307;SDS011;2167;53.448;9.984;2023-02-28T15:45:45;5.50;;;1.20;;
4307;SDS011;2167;53.448;9.984;2023-02-28T15:48:37;1.13;;;0.90;;
4307;SDS011;2167;53.448;9.984;2023-02-28T15:51:20;0.93;;;0.90;;
4307;SDS011;2167;53.448;9.984;2023-02-28T15:54:07;3.27;;;2.13;;
4307;SDS011;2167;53.448;9.984;2023-02-28T15:56:43;11.47;;;5.27;;
4307;SDS011;2167;53.448;9.984;2023-02-28T15:59:13;6.00;;;3.37;;
4307;SDS011;2167;53.448;9.984;2023-02-28T16:01:43;1.60;;;1.50;;
4307;SDS011;2167;53.448;9.984;2023-02-28T16:04:16;2.30;;;1.85;;
4307;SDS011;2167;53.448;9.984;2023-02-28T16:09:25;1.33;;;1.13;;
4307;SDS011;2167;53.448;9.984;2023-02-28T16:11:52;1.47;;;1.13;;
4307;SDS011;2167;53.448;9.984;2023-02-28T16:14:20;1.83;;;1.30;;
4307;SDS011;2167;53.448;9.984;2023-02-28T16:16:50;2.77;;;1.97;;
4307;SDS011;2167;53.448;9.984;2023-02-28T16:19:16;2.23;;;1.13;;
4307;SDS011;2167;53.448;9.984;2023-02-28T16:21:42;1.43;;;1.33;;
4307;SDS011;2167;53.448;9.984;2023-02-28T16:24:09;1.20;;;1.10;;
4307;SDS011;2167;53.448;9.984;2023-02-28T16:26:34;1.33;;;1.10;;
4307;SDS011;2167;53.448;9.984;2023-02-28T16:29:02;3.43;;;0.90;;
4307;SDS011;2167;53.448;9.984;2023-02-28T16:31:28;1.17;;;1.07;;
4307;SDS011;2167;53.448;9.984;2023-02-28T16:33:54;0.77;;;0.77;;
4307;SDS011;2167;53.448;9.984;2023-02-28T16:36:21;1.70;;;1.00;;
4307;SDS011;2167;53.448;9.984;2023-02-28T16:38:50;3.90;;;1.90;;
4307;SDS011;2167;53.448;9.984;2023-02-28T16:41:17;3.60;;;1.10;;
4307;SDS011;2167;53.448;9.984;2023-02-28T16:43:49;2.27;;;1.40;;
4307;SDS011;2167;53.448;9.984;2023-02-28T16:46:18;4.37;;;1.73;;
4307;SDS011;2167;53.448;9.984;2023-02-28T16:48:44;3.53;;;1.80;;
4307;SDS011;2167;53.448;9.984;2023-02-28T16:51:14;1.63;;;1.47;;
4307;SDS011;2167;53.448;9.984;2023-02-28T16:53:40;1.20;;;1.10;;
4307;SDS011;2167;53.448;9.984;2023-02-28T16:56:10;1.40;;;1.30;;
4307;SDS011;2167;53.448;9.984;2023-02-28T16:58:49;2.40;;;2.00;;
4307;SDS011;2167;53.448;9.984;2023-02-28T17:01:16;2.20;;;1.50;;
4307;SDS011;2167;53.448;9.984;2023-02-28T17:03:47;2.40;;;1.77;;
4307;SDS011;2167;53.448;9.984;2023-02-28T17:06:23;2.03;;;1.50;;
4307;SDS011;2167;53.448;9.984;2023-02-28T17:08:54;1.83;;;1.43;;
4307;SDS011;2167;53.448;9.984;2023-02-28T17:11:20;1.43;;;1.33;;
4307;SDS011;2167;53.448;9.984;2023-02-28T17:13:47;1.20;;;1.07;;
4307;SDS011;2167;53.448;9.984;2023-02-28T17:16:34;1.55;;;1.10;;
4307;SDS011;2167;53.448;9.984;2023-02-28T17:19:01;1.80;;;1.70;;
4307;SDS011;2167;53.448;9.984;2023-02-28T17:21:29;3.63;;;1.30;;
4307;SDS011;2167;53.448;9.984;2023-02-28T17:23:56;1.97;;;1.17;;
4307;SDS011;2167;53.448;9.984;2023-02-28T17:26:22;2.10;;;1.97;;
4307;SDS011;2167;53.448;9.984;2023-02-28T17:28:49;1.30;;;1.17;;
4307;SDS011;2167;53.448;9.984;2023-02-28T17:31:16;3.83;;;1.50;;
4307;SDS011;2167;53.448;9.984;2023-02-28T17:33:43;1.10;;;1.00;;